sensor_id;sensor_type;location;lat;lon;timestamp;pressure;altitude;pressure_sealevel;temperature;humidity
56600;BME280;51832;48.152;11.530;2023-02-28T00:04:04;95905.03;;;1.59;54.79
56600;BME280;51832;48.152;11.530;2023-02-28T00:09:04;95894.00;;;1.57;55.49
56600;BME280;51832;48.152;11.530;2023-02-28T00:14:05;95885.38;;;1.49;55.97
56600;BME280;51832;48.152;11.530;2023-02-28T00:19:05;95883.22;;;1.36;56.24
56600;BME280;51832;48.152;11.530;2023-02-28T00:24:06;95884.56;;;1.48;56.45
56600;BME280;51832;48.152;11.530;2023-02-28T00:29:07;95885.03;;;1.43;56.10
56600;BME280;51832;48.152;11.530;2023-02-28T00:34:07;95867.72;;;1.52;56.09
56600;BME280;51832;48.152;11.530;2023-02-28T00:39:07;95881.66;;;1.51;55.77
56600;BME280;51832;48.152;11.530;2023-02-28T00:44:08;95881.44;;;1.36;55.51
56600;BME280;51832;48.152;11.530;2023-02-28T00:49:09;95879.78;;;1.61;55.17
56600;BME280;51832;48.152;11.530;2023-02-28T00:54:09;95880.41;;;1.29;56.50
56600;BME280;51832;48.152;11.530;2023-02-28T00:59:10;95873.56;;;1.20;56.94
56600;BME280;51832;48.152;11.530;2023-02-28T01:04:11;95881.03;;;1.57;55.53
56600;BME280;51832;48.152;11.530;2023-02-28T01:09:12;95878.19;;;1.34;56.31
56600;BME280;51832;48.152;11.530;2023-02-28T01:14:14;95868.47;;;1.36;56.35
56600;BME280;51832;48.152;11.530;2023-02-28T01:19:15;95866.22;;;1.08;56.42
56600;BME280;51832;48.152;11.530;2023-02-28T01:24:15;95863.09;;;1.30;57.28
56600;BME280;51832;48.152;11.530;2023-02-28T01:29:16;95865.25;;;1.09;57.03
56600;BME280;51832;48.152;11.530;2023-02-28T01:34:16;95866.59;;;1.21;56.94
56600;BME280;51832;48.152;11.530;2023-02-28T01:39:19;95853.38;;;1.32;57.05
56600;BME280;51832;48.152;11.530;2023-02-28T01:44:56;95853.94;;;1.52;56.29
56600;BME280;51832;48.152;11.530;2023-02-28T01:49:58;95858.19;;;1.27;57.00
56600;BME280;51832;48.152;11.530;2023-02-28T01:55:02;95854.31;;;1.23;57.27
56600;BME280;51832;48.152;11.530;2023-02-28T02:00:09;95847.03;;;1.00;57.69
56600;BME280;51832;48.152;11.530;2023-02-28T02:05:19;95839.94;;;0.77;58.70
56600;BME280;51832;48.152;11.530;2023-02-28T02:48:10;95826.75;;;0.70;59.95
56600;BME280;51832;48.152;11.530;2023-02-28T02:53:15;95821.78;;;0.51;60.81
56600;BME280;51832;48.152;11.530;2023-02-28T02:58:19;95824.91;;;0.54;60.73
56600;BME280;51832;48.152;11.530;2023-02-28T03:03:21;95822.22;;;0.64;60.35
56600;BME280;51832;48.152;11.530;2023-02-28T03:08:31;95817.50;;;0.42;61.22
56600;BME280;51832;48.152;11.530;2023-02-28T03:24:23;95834.31;;;0.20;63.67
56600;BME280;51832;48.152;11.530;2023-02-28T03:29:35;95834.72;;;0.51;62.07
56600;BME280;51832;48.152;11.530;2023-02-28T03:34:41;95823.69;;;0.66;62.11
56600;BME280;51832;48.152;11.530;2023-02-28T03:39:49;95835.78;;;0.40;62.89
56600;BME280;51832;48.152;11.530;2023-02-28T03:44:57;95825.25;;;0.42;63.21
56600;BME280;51832;48.152;11.530;2023-02-28T03:50:07;95824.78;;;0.20;64.23
56600;BME280;51832;48.152;11.530;2023-02-28T03:55:11;95830.97;;;0.45;63.52
56600;BME280;51832;48.152;11.530;2023-02-28T04:00:20;95836.81;;;0.29;64.31
56600;BME280;51832;48.152;11.530;2023-02-28T04:05:21;95838.56;;;0.47;63.85
56600;BME280;51832;48.152;11.530;2023-02-28T04:10:22;95843.53;;;0.05;66.03
56600;BME280;51832;48.152;11.530;2023-02-28T04:15:23;95853.53;;;0.35;64.26
56600;BME280;51832;48.152;11.530;2023-02-28T04:20:24;95864.38;;;0.56;64.53
56600;BME280;51832;48.152;11.530;2023-02-28T04:25:25;95868.44;;;0.59;64.16
56600;BME280;51832;48.152;11.530;2023-02-28T04:30:25;95874.19;;;0.70;63.42
56600;BME280;51832;48.152;11.530;2023-02-28T04:35:25;95873.72;;;0.67;63.74
56600;BME280;51832;48.152;11.530;2023-02-28T04:40:26;95868.59;;;0.57;64.04
56600;BME280;51832;48.152;11.530;2023-02-28T04:45:26;95873.66;;;0.23;65.33
56600;BME280;51832;48.152;11.530;2023-02-28T04:50:30;95865.81;;;0.51;65.18
56600;BME280;51832;48.152;11.530;2023-02-28T04:55:30;95874.38;;;0.51;64.46
56600;BME280;51832;48.152;11.530;2023-02-28T05:00:30;95878.47;;;0.54;64.53
56600;BME280;51832;48.152;11.530;2023-02-28T05:05:31;95887.09;;;0.45;65.17
56600;BME280;51832;48.152;11.530;2023-02-28T05:10:31;95883.13;;;0.50;64.84
56600;BME280;51832;48.152;11.530;2023-02-28T05:15:32;95899.09;;;0.63;65.40
56600;BME280;51832;48.152;11.530;2023-02-28T05:20:32;95896.47;;;0.81;64.77
56600;BME280;51832;48.152;11.530;2023-02-28T05:25:33;95885.72;;;0.94;64.11
56600;BME280;51832;48.152;11.530;2023-02-28T05:30:33;95896.13;;;3.50;84.87
56600;BME280;51832;48.152;11.530;2023-02-28T05:35:38;95892.97;;;7.40;74.05
56600;BME280;51832;48.152;11.530;2023-02-28T05:40:39;95878.91;;;6.92;58.71
56600;BME280;51832;48.152;11.530;2023-02-28T05:45:40;95884.50;;;4.84;51.89
56600;BME280;51832;48.152;11.530;2023-02-28T05:50:40;95879.63;;;3.18;56.13
56600;BME280;51832;48.152;11.530;2023-02-28T05:55:42;95891.75;;;2.04;58.98
56600;BME280;51832;48.152;11.530;2023-02-28T06:00:43;95890.91;;;1.96;60.49
56600;BME280;51832;48.152;11.530;2023-02-28T06:05:43;95898.69;;;1.96;60.61
56600;BME280;51832;48.152;11.530;2023-02-28T06:10:44;95896.06;;;1.46;62.20
56600;BME280;51832;48.152;11.530;2023-02-28T06:15:45;95914.31;;;1.10;62.01
56600;BME280;51832;48.152;11.530;2023-02-28T06:20:52;95907.06;;;1.73;61.10
56600;BME280;51832;48.152;11.530;2023-02-28T06:25:54;95912.03;;;1.67;60.85
56600;BME280;51832;48.152;11.530;2023-02-28T06:30:58;95916.75;;;1.37;61.66
56600;BME280;51832;48.152;11.530;2023-02-28T06:35:58;95912.84;;;1.67;61.93
56600;BME280;51832;48.152;11.530;2023-02-28T06:40:59;95921.88;;;1.55;61.77
56600;BME280;51832;48.152;11.530;2023-02-28T06:46:02;95927.75;;;0.88;64.47
56600;BME280;51832;48.152;11.530;2023-02-28T06:56:07;95938.47;;;1.62;61.08
56600;BME280;51832;48.152;11.530;2023-02-28T07:01:08;95952.13;;;1.72;60.42
56600;BME280;51832;48.152;11.530;2023-02-28T07:06:09;95950.47;;;2.05;59.79
56600;BME280;51832;48.152;11.530;2023-02-28T07:11:09;95959.75;;;2.16;58.98
56600;BME280;51832;48.152;11.530;2023-02-28T07:16:10;95958.47;;;2.20;58.80
56600;BME280;51832;48.152;11.530;2023-02-28T07:21:11;95948.72;;;2.14;58.83
56600;BME280;51832;48.152;11.530;2023-02-28T07:26:15;95953.56;;;2.59;57.38
56600;BME280;51832;48.152;11.530;2023-02-28T07:31:16;95953.53;;;2.01;59.29
56600;BME280;51832;48.152;11.530;2023-02-28T07:36:17;95962.59;;;1.37;60.53
56600;BME280;51832;48.152;11.530;2023-02-28T07:41:20;95964.22;;;1.38;61.64
56600;BME280;51832;48.152;11.530;2023-02-28T07:46:21;95959.00;;;1.56;60.81
56600;BME280;51832;48.152;11.530;2023-02-28T07:51:22;95958.41;;;1.62;60.21
56600;BME280;51832;48.152;11.530;2023-02-28T07:56:22;95960.38;;;0.98;62.15
56600;BME280;51832;48.152;11.530;2023-02-28T08:01:23;95953.00;;;1.29;61.99
56600;BME280;51832;48.152;11.530;2023-02-28T08:06:24;95963.88;;;1.33;60.87
56600;BME280;51832;48.152;11.530;2023-02-28T08:11:26;95965.25;;;1.45;62.08
56600;BME280;51832;48.152;11.530;2023-02-28T08:16:26;95974.47;;;2.07;58.88
56600;BME280;51832;48.152;11.530;2023-02-28T08:21:27;95987.19;;;1.85;60.21
56600;BME280;51832;48.152;11.530;2023-02-28T08:26:27;95991.69;;;1.74;59.70
56600;BME280;51832;48.152;11.530;2023-02-28T08:31:27;95987.66;;;2.14;58.81
56600;BME280;51832;48.152;11.530;2023-02-28T08:36:28;95994.56;;;1.63;61.02
56600;BME280;51832;48.152;11.530;2023-02-28T08:41:29;95996.38;;;1.71;60.74
56600;BME280;51832;48.152;11.530;2023-02-28T08:46:30;95994.94;;;1.76;59.66
56600;BME280;51832;48.152;11.530;2023-02-28T08:51:30;96012.56;;;1.99;59.60
56600;BME280;51832;48.152;11.530;2023-02-28T08:56:31;96013.69;;;1.96;59.66
56600;BME280;51832;48.152;11.530;2023-02-28T09:01:31;96012.09;;;1.43;61.64
56600;BME280;51832;48.152;11.530;2023-02-28T09:06:31;96009.03;;;1.48;60.75
56600;BME280;51832;48.152;11.530;2023-02-28T09:11:33;96005.06;;;1.62;60.87
56600;BME280;51832;48.152;11.530;2023-02-28T09:16:34;96013.16;;;1.85;59.86
56600;BME280;51832;48.152;11.530;2023-02-28T09:21:35;96014.13;;;2.18;58.83
56600;BME280;51832;48.152;11.530;2023-02-28T09:26:37;96011.50;;;2.60;57.92
56600;BME280;51832;48.152;11.530;2023-02-28T09:31:37;96022.75;;;2.76;57.29
56600;BME280;51832;48.152;11.530;2023-02-28T09:36:38;96023.91;;;3.14;56.04
56600;BME280;51832;48.152;11.530;2023-02-28T09:41:41;96041.81;;;3.34;54.67
56600;BME280;51832;48.152;11.530;2023-02-28T09:46:51;96039.72;;;3.37;55.00
56600;BME280;51832;48.152;11.530;2023-02-28T09:52:00;96039.38;;;3.24;54.53
56600;BME280;51832;48.152;11.530;2023-02-28T10:02:21;96055.47;;;3.76;52.75
56600;BME280;51832;48.152;11.530;2023-02-28T10:13:05;96043.41;;;3.83;52.79
56600;BME280;51832;48.152;11.530;2023-02-28T10:18:11;96049.06;;;4.03;53.36
56600;BME280;51832;48.152;11.530;2023-02-28T10:23:25;96047.03;;;3.66;53.71
56600;BME280;51832;48.152;11.530;2023-02-28T10:28:29;96059.97;;;3.99;52.76
56600;BME280;51832;48.152;11.530;2023-02-28T10:33:33;96058.94;;;4.24;52.20
56600;BME280;51832;48.152;11.530;2023-02-28T10:38:39;96055.91;;;4.04;51.62
56600;BME280;51832;48.152;11.530;2023-02-28T10:43:41;96067.75;;;4.23;51.45
56600;BME280;51832;48.152;11.530;2023-02-28T10:48:50;96071.31;;;5.00;50.26
56600;BME280;51832;48.152;11.530;2023-02-28T10:53:57;96076.09;;;4.57;49.16
56600;BME280;51832;48.152;11.530;2023-02-28T11:09:28;96079.28;;;4.37;49.99
56600;BME280;51832;48.152;11.530;2023-02-28T11:14:32;96075.38;;;4.33;50.30
56600;BME280;51832;48.152;11.530;2023-02-28T11:19:39;96078.03;;;4.63;50.67
56600;BME280;51832;48.152;11.530;2023-02-28T11:24:43;96081.31;;;4.57;49.82
56600;BME280;51832;48.152;11.530;2023-02-28T11:29:47;96066.00;;;4.54;50.16
56600;BME280;51832;48.152;11.530;2023-02-28T11:34:59;96064.47;;;4.99;49.44
56600;BME280;51832;48.152;11.530;2023-02-28T11:40:01;96054.31;;;5.58;46.75
56600;BME280;51832;48.152;11.530;2023-02-28T11:51:18;96049.91;;;6.69;44.84
56600;BME280;51832;48.152;11.530;2023-02-28T11:56:26;96043.69;;;7.06;44.13
56600;BME280;51832;48.152;11.530;2023-02-28T12:01:56;96029.91;;;7.40;44.23
56600;BME280;51832;48.152;11.530;2023-02-28T12:13:20;96031.53;;;7.41;43.20
56600;BME280;51832;48.152;11.530;2023-02-28T12:28:41;96022.81;;;7.83;41.26
56600;BME280;51832;48.152;11.530;2023-02-28T12:33:47;96017.78;;;8.10;41.97
56600;BME280;51832;48.152;11.530;2023-02-28T12:39:15;96006.09;;;7.78;42.33
56600;BME280;51832;48.152;11.530;2023-02-28T12:44:18;96002.16;;;6.46;46.55
56600;BME280;51832;48.152;11.530;2023-02-28T12:49:31;96010.88;;;8.02;42.21
56600;BME280;51832;48.152;11.530;2023-02-28T13:00:01;96008.00;;;9.27;38.60
56600;BME280;51832;48.152;11.530;2023-02-28T13:10:46;95994.63;;;9.09;38.15
56600;BME280;51832;48.152;11.530;2023-02-28T13:16:17;95998.66;;;9.18;40.06
56600;BME280;51832;48.152;11.530;2023-02-28T13:21:28;95993.47;;;9.64;37.85
56600;BME280;51832;48.152;11.530;2023-02-28T13:47:41;96003.66;;;8.93;37.62
56600;BME280;51832;48.152;11.530;2023-02-28T13:53:00;95999.69;;;8.21;40.63
56600;BME280;51832;48.152;11.530;2023-02-28T14:03:27;95998.91;;;6.44;45.79
56600;BME280;51832;48.152;11.530;2023-02-28T14:08:34;96006.66;;;7.52;42.84
56600;BME280;51832;48.152;11.530;2023-02-28T14:13:43;95998.59;;;8.03;41.50
56600;BME280;51832;48.152;11.530;2023-02-28T14:18:51;95999.00;;;7.29;42.52
56600;BME280;51832;48.152;11.530;2023-02-28T14:24:10;96001.19;;;8.78;40.33
56600;BME280;51832;48.152;11.530;2023-02-28T14:39:49;95999.31;;;7.90;41.13
56600;BME280;51832;48.152;11.530;2023-02-28T14:44:54;95995.88;;;8.59;39.63
56600;BME280;51832;48.152;11.530;2023-02-28T14:49:57;95994.25;;;8.58;39.72
56600;BME280;51832;48.152;11.530;2023-02-28T14:55:05;96001.94;;;9.46;37.33
56600;BME280;51832;48.152;11.530;2023-02-28T15:00:22;95994.38;;;12.67;32.42
56600;BME280;51832;48.152;11.530;2023-02-28T15:05:25;95988.84;;;16.22;26.64
56600;BME280;51832;48.152;11.530;2023-02-28T15:10:27;95986.66;;;17.72;23.77
56600;BME280;51832;48.152;11.530;2023-02-28T15:15:42;95978.53;;;18.68;22.58
56600;BME280;51832;48.152;11.530;2023-02-28T15:20:45;95995.81;;;18.60;22.29
56600;BME280;51832;48.152;11.530;2023-02-28T15:25:45;95987.03;;;19.42;21.94
56600;BME280;51832;48.152;11.530;2023-02-28T15:30:59;95989.31;;;18.04;22.36
56600;BME280;51832;48.152;11.530;2023-02-28T15:36:03;95989.81;;;16.93;24.45
56600;BME280;51832;48.152;11.530;2023-02-28T15:41:04;95993.34;;;17.26;24.06
56600;BME280;51832;48.152;11.530;2023-02-28T15:46:09;95996.81;;;15.89;25.68
56600;BME280;51832;48.152;11.530;2023-02-28T15:56:31;95996.28;;;12.60;30.08
56600;BME280;51832;48.152;11.530;2023-02-28T16:01:37;96008.47;;;12.43;35.04
56600;BME280;51832;48.152;11.530;2023-02-28T16:06:42;96008.91;;;10.58;37.91
56600;BME280;51832;48.152;11.530;2023-02-28T16:11:45;96011.63;;;8.65;39.91
56600;BME280;51832;48.152;11.530;2023-02-28T16:16:50;96011.69;;;8.72;40.57
56600;BME280;51832;48.152;11.530;2023-02-28T16:21:51;96005.13;;;8.20;41.26
56600;BME280;51832;48.152;11.530;2023-02-28T16:26:53;96011.22;;;7.43;43.95
56600;BME280;51832;48.152;11.530;2023-02-28T16:31:54;96002.78;;;7.97;42.16
56600;BME280;51832;48.152;11.530;2023-02-28T16:36:55;96017.41;;;7.85;42.54
56600;BME280;51832;48.152;11.530;2023-02-28T16:41:55;96019.25;;;8.19;41.82
56600;BME280;51832;48.152;11.530;2023-02-28T16:46:56;96020.97;;;8.05;42.04
56600;BME280;51832;48.152;11.530;2023-02-28T16:51:56;96021.00;;;8.40;41.28
56600;BME280;51832;48.152;11.530;2023-02-28T16:56:56;96025.06;;;8.49;41.39
56600;BME280;51832;48.152;11.530;2023-02-28T17:01:57;96034.75;;;8.20;42.00
56600;BME280;51832;48.152;11.530;2023-02-28T17:06:58;96031.50;;;7.84;43.04
56600;BME280;51832;48.152;11.530;2023-02-28T17:11:58;96040.63;;;7.67;43.06
56600;BME280;51832;48.152;11.530;2023-02-28T17:16:59;96042.53;;;7.79;43.26
56600;BME280;51832;48.152;11.530;2023-02-28T17:21:59;96045.00;;;7.60;43.97
56600;BME280;51832;48.152;11.530;2023-02-28T17:27:00;96049.75;;;7.49;44.13
56600;BME280;51832;48.152;11.530;2023-02-28T17:32:01;96056.28;;;7.39;44.52
56600;BME280;51832;48.152;11.530;2023-02-28T17:37:01;96064.72;;;7.56;44.92
56600;BME280;51832;48.152;11.530;2023-02-28T17:42:02;96066.75;;;7.39;45.26
56600;BME280;51832;48.152;11.530;2023-02-28T17:47:03;96055.94;;;7.63;44.77
56600;BME280;51832;48.152;11.530;2023-02-28T17:52:04;96060.94;;;7.86;44.53
56600;BME280;51832;48.152;11.530;2023-02-28T17:57:04;96056.66;;;7.14;45.90
56600;BME280;51832;48.152;11.530;2023-02-28T18:02:04;96053.03;;;7.16;46.42
56600;BME280;51832;48.152;11.530;2023-02-28T18:07:06;96061.09;;;6.99;46.72
56600;BME280;51832;48.152;11.530;2023-02-28T18:12:07;96057.00;;;7.47;46.07
56600;BME280;51832;48.152;11.530;2023-02-28T18:17:09;96058.94;;;6.37;48.52
56600;BME280;51832;48.152;11.530;2023-02-28T18:22:12;96059.50;;;6.84;47.90
56600;BME280;51832;48.152;11.530;2023-02-28T18:27:12;96053.41;;;6.76;48.06
56600;BME280;51832;48.152;11.530;2023-02-28T18:32:13;96055.53;;;6.88;48.14
56600;BME280;51832;48.152;11.530;2023-02-28T18:37:13;96062.38;;;6.38;49.96
56600;BME280;51832;48.152;11.530;2023-02-28T18:42:15;96065.06;;;6.59;48.75
56600;BME280;51832;48.152;11.530;2023-02-28T18:47:15;96061.41;;;6.90;47.93
56600;BME280;51832;48.152;11.530;2023-02-28T18:52:16;96055.66;;;7.16;47.71
56600;BME280;51832;48.152;11.530;2023-02-28T18:57:16;96060.66;;;7.10;47.21
56600;BME280;51832;48.152;11.530;2023-02-28T19:02:16;96047.03;;;7.36;47.08
56600;BME280;51832;48.152;11.530;2023-02-28T19:07:17;96064.75;;;6.84;48.01
56600;BME280;51832;48.152;11.530;2023-02-28T19:12:17;96048.53;;;6.73;48.56
56600;BME280;51832;48.152;11.530;2023-02-28T19:17:19;96044.41;;;6.64;48.83
56600;BME280;51832;48.152;11.530;2023-02-28T19:22:20;96053.25;;;6.63;48.63
56600;BME280;51832;48.152;11.530;2023-02-28T19:27:20;96056.84;;;6.48;49.60
56600;BME280;51832;48.152;11.530;2023-02-28T19:32:21;96058.59;;;6.55;49.19
56600;BME280;51832;48.152;11.530;2023-02-28T19:37:21;96052.09;;;6.51;49.34
56600;BME280;51832;48.152;11.530;2023-02-28T19:42:22;96061.09;;;6.49;49.57
56600;BME280;51832;48.152;11.530;2023-02-28T19:47:22;96057.78;;;5.88;51.61
56600;BME280;51832;48.152;11.530;2023-02-28T19:52:23;96062.81;;;6.27;50.81
56600;BME280;51832;48.152;11.530;2023-02-28T19:57:24;96058.47;;;5.67;52.02
56600;BME280;51832;48.152;11.530;2023-02-28T20:02:24;96057.13;;;6.09;51.07
56600;BME280;51832;48.152;11.530;2023-02-28T20:07:25;96047.66;;;6.22;52.11
56600;BME280;51832;48.152;11.530;2023-02-28T20:12:26;96055.41;;;6.16;52.14
56600;BME280;51832;48.152;11.530;2023-02-28T20:17:27;96045.41;;;6.49;50.88
56600;BME280;51832;48.152;11.530;2023-02-28T20:22:28;96053.59;;;6.16;51.94
56600;BME280;51832;48.152;11.530;2023-02-28T20:27:28;96050.59;;;5.90;53.02
56600;BME280;51832;48.152;11.530;2023-02-28T20:32:29;96048.56;;;5.77;53.60
56600;BME280;51832;48.152;11.530;2023-02-28T20:37:29;96044.72;;;5.50;54.46
56600;BME280;51832;48.152;11.530;2023-02-28T20:42:30;96048.50;;;5.48;54.84
56600;BME280;51832;48.152;11.530;2023-02-28T20:47:30;96044.66;;;5.58;54.75
56600;BME280;51832;48.152;11.530;2023-02-28T20:52:31;96050.63;;;6.04;53.07
56600;BME280;51832;48.152;11.530;2023-02-28T20:57:31;96050.28;;;5.47;54.28
56600;BME280;51832;48.152;11.530;2023-02-28T21:02:32;96050.16;;;5.63;54.55
56600;BME280;51832;48.152;11.530;2023-02-28T21:07:32;96046.88;;;5.84;53.96
56600;BME280;51832;48.152;11.530;2023-02-28T21:12:32;96038.81;;;5.56;54.62
56600;BME280;51832;48.152;11.530;2023-02-28T21:17:33;96044.66;;;5.58;53.97
56600;BME280;51832;48.152;11.530;2023-02-28T21:22:33;96045.25;;;5.83;54.02
56600;BME280;51832;48.152;11.530;2023-02-28T21:27:33;96052.22;;;5.53;54.44
56600;BME280;51832;48.152;11.530;2023-02-28T21:32:34;96047.22;;;5.81;53.76
56600;BME280;51832;48.152;11.530;2023-02-28T21:37:36;96042.97;;;5.20;55.35
56600;BME280;51832;48.152;11.530;2023-02-28T21:42:37;96036.63;;;5.45;55.40
56600;BME280;51832;48.152;11.530;2023-02-28T21:47:38;96028.03;;;5.59;55.04
56600;BME280;51832;48.152;11.530;2023-02-28T21:52:38;96022.47;;;5.40;54.81
56600;BME280;51832;48.152;11.530;2023-02-28T21:57:38;96028.03;;;5.36;55.44
56600;BME280;51832;48.152;11.530;2023-02-28T22:02:39;96030.00;;;5.34;55.25
56600;BME280;51832;48.152;11.530;2023-02-28T22:07:39;96028.53;;;5.55;54.77
56600;BME280;51832;48.152;11.530;2023-02-28T22:12:41;96033.19;;;5.22;55.55
56600;BME280;51832;48.152;11.530;2023-02-28T22:17:41;96036.84;;;5.35;54.64
56600;BME280;51832;48.152;11.530;2023-02-28T22:22:41;96024.44;;;5.38;54.66
56600;BME280;51832;48.152;11.530;2023-02-28T22:27:42;96028.75;;;5.30;55.20
56600;BME280;51832;48.152;11.530;2023-02-28T22:32:42;96020.91;;;5.08;55.67
56600;BME280;51832;48.152;11.530;2023-02-28T22:37:43;96022.28;;;5.41;55.56
56600;BME280;51832;48.152;11.530;2023-02-28T22:42:43;96024.44;;;5.38;55.01
56600;BME280;51832;48.152;11.530;2023-02-28T22:47:47;96029.38;;;5.32;55.73
56600;BME280;51832;48.152;11.530;2023-02-28T22:52:47;96027.16;;;4.76;56.96
56600;BME280;51832;48.152;11.530;2023-02-28T22:57:48;96017.03;;;5.26;55.47
56600;BME280;51832;48.152;11.530;2023-02-28T23:02:48;96033.97;;;5.68;54.44
56600;BME280;51832;48.152;11.530;2023-02-28T23:07:48;96028.78;;;5.83;54.10
56600;BME280;51832;48.152;11.530;2023-02-28T23:12:49;96023.34;;;5.32;56.12
56600;BME280;51832;48.152;11.530;2023-02-28T23:17:49;96013.06;;;5.08;56.09
56600;BME280;51832;48.152;11.530;2023-02-28T23:22:50;96017.13;;;5.10;56.57
56600;BME280;51832;48.152;11.530;2023-02-28T23:27:50;96022.94;;;5.43;55.27
56600;BME280;51832;48.152;11.530;2023-02-28T23:32:51;96027.75;;;5.31;56.08
56600;BME280;51832;48.152;11.530;2023-02-28T23:37:51;96027.22;;;5.13;56.95
56600;BME280;51832;48.152;11.530;2023-02-28T23:42:51;96025.75;;;5.33;55.49
56600;BME280;51832;48.152;11.530;2023-02-28T23:47:52;96016.50;;;5.08;56.96
56600;BME280;51832;48.152;11.530;2023-02-28T23:52:53;96005.09;;;5.32;56.23
56600;BME280;51832;48.152;11.530;2023-02-28T23:57:53;96015.28;;;5.42;54.82
